Time;durP1;ratioP1;P1;durP2;ratioP2;P2;SDS_P1;SDS_P2;PMS_P1;PMS_P2;Temp;Humidity;BMP_temperature;BMP_pressure;BME280_temperature;BME280_humidity;BME280_pressure;Samples;Min_cycle;Max_cycle;Signal;HPM_P1;HPM_P2
2023/02/14 00:02:41;;;;;;;3.30;1.60;;;;;;;11.33;50.75;101564.40;143587;1277;97959;-87
2023/02/14 00:06:13;;;;;;;5.00;2.30;;;;;;;11.31;50.57;101560.52;143313;1277;97941;-85
2023/02/14 00:09:39;;;;;;;4.10;2.10;;;;;;;11.31;50.75;101556.84;143511;1276;102431;-85
2023/02/14 00:13:03;;;;;;;2.90;1.90;;;;;;;11.30;50.83;101559.94;143568;1273;101968;-84
2023/02/14 00:16:25;;;;;;;3.90;1.90;;;;;;;11.30;50.71;101568.82;143769;1285;98387;-83
2023/02/14 00:19:47;;;;;;;4.00;2.30;;;;;;;11.29;50.70;101574.33;143999;1273;98072;-84
2023/02/14 00:23:09;;;;;;;2.80;1.60;;;;;;;11.28;50.75;101579.89;143634;1273;108610;-82
2023/02/14 00:26:30;;;;;;;5.50;1.90;;;;;;;11.26;50.72;101579.98;143584;1276;97939;-84
2023/02/14 00:29:53;;;;;;;4.40;1.90;;;;;;;11.26;50.85;101581.52;143779;1278;98020;-85
2023/02/14 00:33:15;;;;;;;4.40;2.20;;;;;;;11.26;50.88;101587.61;143605;1277;98059;-84
2023/02/14 00:36:37;;;;;;;3.10;2.10;;;;;;;11.25;50.90;101589.67;143326;1280;98426;-81
2023/02/14 00:39:59;;;;;;;2.90;2.20;;;;;;;11.25;50.73;101586.37;143227;1287;97988;-86
2023/02/14 00:43:21;;;;;;;3.70;2.00;;;;;;;11.25;50.78;101587.92;143408;1276;99142;-83
2023/02/14 00:46:43;;;;;;;3.80;1.90;;;;;;;11.25;50.75;101587.05;143712;1274;98062;-85
2023/02/14 00:50:05;;;;;;;2.80;2.10;;;;;;;11.24;50.77;101591.91;143661;1273;99134;-86
2023/02/14 00:53:27;;;;;;;2.90;2.10;;;;;;;11.24;50.75;101590.48;143504;1273;110714;-85
2023/02/14 00:56:48;;;;;;;2.40;1.80;;;;;;;11.22;50.85;101590.23;143520;1273;98026;-85
2023/02/14 01:00:12;;;;;;;3.20;2.10;;;;;;;11.21;50.90;101593.70;143929;1287;98884;-85
2023/02/14 01:03:35;;;;;;;4.20;1.90;;;;;;;11.21;50.83;101594.20;143671;1273;102271;-86
2023/02/14 01:06:56;;;;;;;3.30;2.00;;;;;;;11.20;50.69;101593.29;143447;1277;98081;-87
2023/02/14 01:10:21;;;;;;;2.60;2.00;;;;;;;11.19;50.90;101590.13;143404;1276;102207;-84
2023/02/14 01:13:43;;;;;;;2.80;1.80;;;;;;;11.19;50.76;101586.64;143301;1272;97946;-84
2023/02/14 01:17:05;;;;;;;4.30;1.90;;;;;;;11.18;50.74;101584.69;143627;1276;97965;-87
2023/02/14 01:20:27;;;;;;;2.70;1.80;;;;;;;11.18;50.80;101586.23;143462;1276;107503;-83
2023/02/14 01:23:52;;;;;;;3.80;2.20;;;;;;;11.17;50.86;101579.06;143587;1276;99242;-86
2023/02/14 01:27:16;;;;;;;3.40;1.70;;;;;;;11.16;50.88;101581.98;143448;1281;108406;-87
2023/02/14 01:30:38;;;;;;;3.60;2.40;;;;;;;11.15;50.76;101584.05;143631;1273;98027;-85
2023/02/14 01:34:00;;;;;;;3.10;2.00;;;;;;;11.15;50.85;101592.38;143638;1287;97981;-86
2023/02/14 01:37:22;;;;;;;5.90;2.40;;;;;;;11.15;50.90;101595.16;143541;1272;98070;-85
2023/02/14 01:40:44;;;;;;;4.40;1.90;;;;;;;11.14;51.04;101591.67;143526;1273;98228;-85
2023/02/14 01:44:32;;;;;;;2.80;1.60;;;;;;;11.13;50.96;101593.36;143765;1277;98042;-87
2023/02/14 01:47:55;;;;;;;2.90;2.20;;;;;;;11.13;50.98;101589.16;143683;1276;98855;-87
2023/02/14 01:51:19;;;;;;;3.00;2.20;;;;;;;11.12;51.01;101584.78;143223;1276;98141;-88
2023/02/14 01:54:46;;;;;;;3.60;2.20;;;;;;;11.11;50.93;101581.45;143594;1276;99053;-90
2023/02/14 01:58:13;;;;;;;3.80;2.10;;;;;;;11.10;51.00;101593.77;143546;1287;99266;-86
2023/02/14 02:01:34;;;;;;;3.00;1.90;;;;;;;11.09;50.81;101593.02;143448;1274;98013;-87
2023/02/14 02:04:56;;;;;;;5.50;2.60;;;;;;;11.08;51.13;101591.96;143675;1276;98034;-86
2023/02/14 02:08:19;;;;;;;4.20;2.10;;;;;;;11.08;51.06;101588.29;143323;1279;98055;-85
2023/02/14 02:11:41;;;;;;;3.50;2.50;;;;;;;11.07;50.96;101591.05;143495;1272;110220;-89
2023/02/14 02:15:05;;;;;;;5.30;2.30;;;;;;;11.06;51.01;101589.41;143594;1273;99251;-86
2023/02/14 02:19:17;;;;;;;3.70;2.70;;;;;;;11.05;51.17;101587.48;143578;1273;99748;-86
2023/02/14 02:22:55;;;;;;;4.20;2.40;;;;;;;11.04;51.03;101595.79;142412;1279;109670;-86
2023/02/14 02:26:36;;;;;;;5.50;2.30;;;;;;;11.03;50.98;101599.20;142471;1279;112379;-90
2023/02/14 02:30:24;;;;;;;5.30;2.30;;;;;;;11.02;51.16;101603.35;142548;1280;111199;-88
2023/02/14 02:33:47;;;;;;;2.80;1.80;;;;;;;11.02;51.19;101605.42;142439;1282;111385;-87
2023/02/14 02:37:39;;;;;;;5.20;2.60;;;;;;;11.01;51.24;101602.42;142398;1280;98110;-86
2023/02/14 02:41:22;;;;;;;3.40;2.20;;;;;;;11.00;51.12;101604.30;142585;1279;112709;-85
2023/02/14 02:44:54;;;;;;;2.80;1.80;;;;;;;11.00;51.33;101613.34;142497;1280;111167;-81
2023/02/14 02:48:19;;;;;;;6.50;2.80;;;;;;;10.99;51.12;101616.45;142566;1282;110763;-87
2023/02/14 02:56:44;;;;;;;3.90;2.20;;;;;;;10.98;51.03;101620.75;143261;1273;113213;-89
2023/02/14 02:59:19;;;;;;;2.50;1.90;;;;;;;10.97;51.21;101622.78;143523;1275;111151;-88
2023/02/14 03:06:32;;;;;;;4.40;2.30;;;;;;;10.94;51.23;101624.59;143381;1277;110945;-86
2023/02/14 03:09:57;;;;;;;3.40;2.60;;;;;;;10.93;51.24;101624.02;143575;1275;98486;-87
2023/02/14 03:13:56;;;;;;;6.20;2.60;;;;;;;10.92;51.20;101627.29;143393;1288;97975;-84
2023/02/14 03:17:25;;;;;;;3.60;2.30;;;;;;;10.91;51.27;101623.77;143738;1273;112151;-87
2023/02/14 03:20:50;;;;;;;;;;;;;;;10.91;51.33;101630.02;143542;1276;110948;-86
2023/02/14 03:24:15;;;;;;;3.20;2.60;;;;;;;10.90;51.26;101636.40;143703;1272;110800;-83
2023/02/14 03:27:45;;;;;;;5.70;2.80;;;;;;;10.88;51.09;101632.52;143439;1292;112006;-86
2023/02/14 03:31:06;;;;;;;;;;;;;;;10.86;51.42;101631.40;143523;1275;111121;-85
2023/02/14 03:34:35;;;;;;;6.20;2.50;;;;;;;10.85;51.24;101636.90;143232;1277;97965;-86
2023/02/14 03:38:05;;;;;;;2.80;2.20;;;;;;;10.84;51.26;101637.02;143578;1276;112105;-85
2023/02/14 03:41:32;;;;;;;3.10;2.70;;;;;;;10.82;51.39;101638.69;143529;1273;111197;-86
2023/02/14 03:44:55;;;;;;;5.80;2.70;;;;;;;10.81;51.37;101639.00;143253;1291;111548;-87
2023/02/14 03:48:18;;;;;;;3.00;2.70;;;;;;;10.81;51.47;101642.64;143352;1276;111175;-89
2023/02/14 03:51:48;;;;;;;3.60;2.30;;;;;;;10.79;51.32;101644.65;143211;1274;111152;-89
2023/02/14 03:55:11;;;;;;;4.60;2.30;;;;;;;10.78;51.50;101637.29;143528;1293;110965;-89
2023/02/14 03:58:38;;;;;;;4.00;2.20;;;;;;;10.77;51.57;101639.52;143579;1275;98058;-86
2023/02/14 04:02:08;;;;;;;2.80;2.60;;;;;;;10.77;51.39;101635.51;143436;1273;111373;-88
2023/02/14 04:05:29;;;;;;;4.70;2.40;;;;;;;10.75;51.56;101635.42;143455;1272;111942;-87
2023/02/14 04:08:51;;;;;;;4.10;2.80;;;;;;;10.74;51.48;101640.61;143572;1277;98004;-85
2023/02/14 04:12:15;;;;;;;2.90;2.10;;;;;;;10.73;51.62;101632.22;143850;1273;98023;-83
2023/02/14 04:15:40;;;;;;;5.20;3.00;;;;;;;10.72;51.56;101623.30;143576;1272;101352;-87
2023/02/14 04:22:45;;;;;;;3.30;2.80;;;;;;;10.70;51.60;101625.85;143664;1276;102046;-89
2023/02/14 04:26:07;;;;;;;5.10;3.20;;;;;;;10.70;51.52;101626.16;143564;1273;100670;-86
2023/02/14 04:29:28;;;;;;;2.80;2.60;;;;;;;10.69;51.69;101630.29;143661;1273;97961;-87
2023/02/14 04:32:50;;;;;;;5.10;2.50;;;;;;;10.69;51.63;101630.11;143674;1276;99245;-85
2023/02/14 04:36:13;;;;;;;3.30;2.30;;;;;;;10.68;51.57;101634.44;143563;1273;108579;-85
2023/02/14 04:39:35;;;;;;;4.70;2.60;;;;;;;10.67;51.64;101638.55;143451;1276;98020;-85
2023/02/14 04:42:57;;;;;;;2.80;2.00;;;;;;;10.66;51.43;101644.61;143464;1274;98023;-84
2023/02/14 04:46:19;;;;;;;5.90;3.10;;;;;;;10.66;51.62;101645.09;143704;1284;98017;-84
2023/02/14 04:49:41;;;;;;;5.70;2.60;;;;;;;10.64;51.58;101647.14;143228;1276;98030;-85
2023/02/14 04:53:03;;;;;;;3.10;2.10;;;;;;;10.64;51.61;101654.60;143546;1273;97921;-84
2023/02/14 04:56:25;;;;;;;5.30;3.00;;;;;;;10.63;51.77;101660.64;143446;1279;98050;-85
2023/02/14 04:59:49;;;;;;;4.30;2.90;;;;;;;10.63;51.84;101659.77;143576;1272;98024;-83
2023/02/14 05:03:11;;;;;;;3.90;2.80;;;;;;;10.62;51.74;101663.20;143516;1277;99242;-84
2023/02/14 05:06:33;;;;;;;3.20;2.40;;;;;;;10.62;51.64;101670.15;143642;1276;98029;-84
2023/02/14 05:09:55;;;;;;;5.20;2.90;;;;;;;10.62;51.74;101672.41;143564;1276;111126;-85
2023/02/14 05:13:17;;;;;;;3.40;3.00;;;;;;;10.62;51.69;101672.23;143596;1276;97924;-85
2023/02/14 05:16:38;;;;;;;3.90;3.00;;;;;;;10.62;51.83;101679.02;143608;1276;98883;-85
2023/02/14 05:20:07;;;;;;;5.80;2.60;;;;;;;10.61;51.65;101682.64;143916;1274;101991;-85
2023/02/14 05:23:29;;;;;;;6.10;2.60;;;;;;;10.60;51.71;101678.80;143590;1276;102858;-86
2023/02/14 05:26:51;;;;;;;3.70;2.00;;;;;;;10.60;51.69;101684.50;143627;1274;99359;-85
2023/02/14 05:30:13;;;;;;;6.00;2.60;;;;;;;10.59;51.65;101689.35;143574;1270;99242;-88
2023/02/14 05:33:35;;;;;;;2.50;2.30;;;;;;;10.59;51.64;101685.48;143525;1277;105815;-84
2023/02/14 05:36:57;;;;;;;3.00;2.60;;;;;;;10.58;51.68;101696.42;143657;1277;98123;-85
2023/02/14 05:40:19;;;;;;;4.40;2.50;;;;;;;10.58;51.65;101698.33;143606;1295;97994;-86
2023/02/14 05:43:41;;;;;;;4.00;2.50;;;;;;;10.58;51.83;101691.17;143600;1287;97972;-84
2023/02/14 05:47:03;;;;;;;3.30;3.00;;;;;;;10.57;51.80;101698.11;143628;1272;97963;-84
2023/02/14 05:50:25;;;;;;;4.00;2.30;;;;;;;10.57;51.77;101695.15;143592;1275;99313;-86
2023/02/14 05:53:47;;;;;;;8.00;2.80;;;;;;;10.57;51.71;101690.80;143625;1273;97959;-86
2023/02/14 05:57:09;;;;;;;2.40;2.20;;;;;;;10.56;51.71;101692.34;143719;1273;99372;-86
2023/02/14 06:00:31;;;;;;;3.00;2.70;;;;;;;10.55;51.89;101699.77;143758;1273;97953;-86
2023/02/14 06:03:53;;;;;;;3.80;2.50;;;;;;;10.56;51.94;101706.20;143502;1277;111243;-85
2023/02/14 06:07:15;;;;;;;3.50;2.80;;;;;;;10.55;51.70;101709.15;143721;1275;98836;-87
2023/02/14 06:10:51;;;;;;;4.30;2.70;;;;;;;10.55;51.86;101708.28;143521;1273;111171;-89
2023/02/14 06:14:12;;;;;;;5.00;3.10;;;;;;;10.55;51.73;101711.24;143627;1273;98001;-87
2023/02/14 06:17:36;;;;;;;4.10;3.00;;;;;;;10.55;51.87;101712.27;143428;1274;98023;-87
2023/02/14 06:20:58;;;;;;;2.90;2.50;;;;;;;10.55;51.85;101709.85;143574;1273;99271;-87
2023/02/14 06:24:21;;;;;;;5.70;3.50;;;;;;;10.55;51.70;101714.89;143509;1275;102215;-83
2023/02/14 06:27:42;;;;;;;6.10;2.50;;;;;;;10.55;51.89;101716.46;143574;1274;98051;-84
2023/02/14 06:31:04;;;;;;;4.40;2.70;;;;;;;10.55;51.81;101721.30;143630;1273;97954;-88
2023/02/14 06:34:26;;;;;;;4.70;3.00;;;;;;;10.54;51.72;101720.60;143695;1272;107673;-88
2023/02/14 06:37:48;;;;;;;4.00;2.70;;;;;;;10.54;51.69;101721.98;143568;1276;99236;-86
2023/02/14 06:41:10;;;;;;;2.90;2.20;;;;;;;10.55;51.74;101723.23;143452;1277;98007;-89
2023/02/14 06:44:32;;;;;;;4.60;2.90;;;;;;;10.55;51.92;101726.19;143682;1274;98473;-87
2023/02/14 06:47:54;;;;;;;4.30;2.80;;;;;;;10.55;51.82;101733.83;144146;1273;97943;-90
2023/02/14 06:51:16;;;;;;;6.20;3.40;;;;;;;10.55;51.72;101730.19;143605;1272;98003;-88
2023/02/14 06:54:37;;;;;;;3.30;2.60;;;;;;;10.56;51.97;101734.23;143522;1276;97937;-89
2023/02/14 06:57:59;;;;;;;4.70;2.90;;;;;;;10.57;51.94;101730.65;143702;1274;98010;-85
2023/02/14 07:01:21;;;;;;;5.10;2.90;;;;;;;10.59;51.82;101728.80;143731;1276;97976;-89
2023/02/14 07:04:43;;;;;;;4.40;2.70;;;;;;;10.60;51.77;101731.48;143657;1273;110129;-87
2023/02/14 07:08:06;;;;;;;6.70;3.60;;;;;;;10.63;51.73;101731.08;143295;1276;98008;-87
2023/02/14 07:11:28;;;;;;;4.40;3.30;;;;;;;10.65;51.76;101731.84;143788;1276;97965;-86
2023/02/14 07:14:50;;;;;;;4.00;2.40;;;;;;;10.66;51.70;101735.20;143754;1287;97947;-88
2023/02/14 07:18:12;;;;;;;3.90;2.80;;;;;;;10.69;51.67;101730.95;143262;1279;102147;-86
2023/02/14 07:21:34;;;;;;;2.90;2.70;;;;;;;10.71;51.65;101732.45;143823;1274;98036;-88
2023/02/14 07:24:56;;;;;;;7.70;3.10;;;;;;;10.72;51.49;101736.33;143561;1276;99114;-87
2023/02/14 07:28:18;;;;;;;6.20;3.20;;;;;;;10.74;51.72;101744.23;143461;1276;108434;-84
2023/02/14 07:31:39;;;;;;;4.00;3.00;;;;;;;10.77;51.59;101746.46;143584;1275;98039;-86
2023/02/14 07:35:04;;;;;;;5.00;3.10;;;;;;;10.79;51.62;101750.38;143369;1273;97943;-86
2023/02/14 07:38:29;;;;;;;5.80;2.80;;;;;;;10.80;51.49;101755.14;143840;1276;98849;-87
2023/02/14 07:41:51;;;;;;;4.50;3.00;;;;;;;10.82;51.49;101751.75;143440;1273;98120;-86
2023/02/14 07:45:13;;;;;;;6.40;2.90;;;;;;;10.85;51.24;101749.77;143607;1271;98063;-87
2023/02/14 07:48:43;;;;;;;5.00;3.30;;;;;;;10.87;51.31;101752.17;143593;1276;107480;-84
2023/02/14 07:52:05;;;;;;;2.90;2.50;;;;;;;10.90;51.51;101757.15;143963;1272;97934;-87
2023/02/14 07:55:28;;;;;;;5.70;4.30;;;;;;;10.92;51.43;101758.96;143610;1276;98465;-86
2023/02/14 07:58:56;;;;;;;5.10;3.50;;;;;;;10.94;51.36;101766.69;143452;1272;97940;-82
2023/02/14 08:02:21;;;;;;;3.70;2.90;;;;;;;10.95;51.39;101769.01;143938;1272;97947;-87
2023/02/14 08:05:43;;;;;;;3.90;3.00;;;;;;;10.98;51.35;101770.02;143477;1274;98156;-87
2023/02/14 08:09:06;;;;;;;4.70;3.30;;;;;;;11.00;51.37;101778.66;143535;1272;99166;-86
2023/02/14 08:16:10;;;;;;;5.10;3.10;;;;;;;11.06;51.17;101794.36;143946;1276;98826;-89
2023/02/14 08:19:33;;;;;;;4.20;2.90;;;;;;;11.08;51.18;101795.16;143632;1273;98051;-89
2023/02/14 08:22:55;;;;;;;4.20;2.80;;;;;;;11.10;51.23;101802.55;144009;1276;97984;-87
2023/02/14 08:26:17;;;;;;;3.00;2.70;;;;;;;11.12;51.06;101802.81;143601;1275;99281;-90
2023/02/14 08:29:39;;;;;;;5.40;2.70;;;;;;;11.14;51.23;101801.86;143623;1275;111926;-87
2023/02/14 08:33:02;;;;;;;4.60;2.80;;;;;;;11.17;51.11;101808.96;143571;1273;99252;-87
2023/02/14 08:36:23;;;;;;;4.30;3.00;;;;;;;11.20;51.08;101808.05;144018;1273;98407;-84
2023/02/14 08:39:45;;;;;;;6.50;3.00;;;;;;;11.24;50.92;101802.48;143664;1273;99990;-90
2023/02/14 08:43:07;;;;;;;5.70;3.30;;;;;;;11.27;50.76;101801.08;143581;1276;99099;-85
2023/02/14 08:46:29;;;;;;;5.00;2.80;;;;;;;11.32;50.83;101798.83;143692;1273;98423;-86
2023/02/14 08:49:51;;;;;;;3.20;2.80;;;;;;;11.37;50.91;101799.38;144687;1272;107154;-84
2023/02/14 08:53:14;;;;;;;5.10;3.40;;;;;;;11.41;50.78;101796.41;143641;1274;99297;-84
2023/02/14 08:56:37;;;;;;;3.00;2.70;;;;;;;11.46;50.79;101794.53;143955;1277;99270;-86
2023/02/14 08:59:59;;;;;;;7.50;4.50;;;;;;;11.51;50.75;101801.02;143744;1273;98481;-84
2023/02/14 09:03:26;;;;;;;4.90;3.60;;;;;;;11.54;50.74;101809.00;143533;1276;99268;-86
2023/02/14 09:06:47;;;;;;;5.40;3.20;;;;;;;11.58;50.73;101810.73;143901;1272;99133;-79
2023/02/14 09:10:10;;;;;;;4.80;3.50;;;;;;;11.60;50.69;101804.91;143951;1274;99245;-84
2023/02/14 09:13:32;;;;;;;5.30;3.40;;;;;;;11.64;50.46;101804.86;143500;1276;98086;-85
2023/02/14 09:16:54;;;;;;;4.50;3.10;;;;;;;11.66;50.44;101806.86;143751;1272;99090;-84
2023/02/14 09:20:16;;;;;;;5.40;3.50;;;;;;;11.67;50.51;101811.48;143985;1278;98003;-84
2023/02/14 09:23:38;;;;;;;4.80;3.30;;;;;;;11.70;50.42;101811.06;143392;1273;112035;-87
2023/02/14 09:27:00;;;;;;;5.40;3.10;;;;;;;11.73;50.36;101811.71;143465;1277;97964;-83
2023/02/14 09:30:22;;;;;;;3.80;2.90;;;;;;;11.75;50.46;101810.77;144586;1276;98164;-87
2023/02/14 09:33:46;;;;;;;7.60;3.90;;;;;;;11.78;50.26;101807.55;144265;1274;103084;-92
2023/02/14 09:37:34;;;;;;;5.00;3.50;;;;;;;11.80;50.33;101806.94;143986;1271;101647;-79
2023/02/14 09:40:57;;;;;;;5.60;3.30;;;;;;;11.85;50.98;101805.45;144168;1273;101766;-82
2023/02/14 09:44:28;;;;;;;6.30;3.20;;;;;;;12.11;53.01;101808.06;144100;1272;102245;-83
2023/02/14 09:47:52;;;;;;;13.40;4.20;;;;;;;12.24;52.90;101807.01;143731;1276;166179;-86
2023/02/14 09:51:22;;;;;;;5.50;3.30;;;;;;;12.26;52.95;101806.23;144410;1275;101255;-82
2023/02/14 09:54:49;;;;;;;4.30;3.80;;;;;;;12.26;52.97;101815.47;144625;1274;101046;-90
2023/02/14 09:58:20;;;;;;;7.10;4.50;;;;;;;12.27;52.79;101819.86;144945;1274;102408;-85
2023/02/14 10:01:47;;;;;;;5.90;4.20;;;;;;;12.29;52.73;101817.50;144037;1270;103214;-88
2023/02/14 10:05:12;;;;;;;5.60;3.40;;;;;;;12.32;52.59;101823.54;143586;1274;103184;-87
2023/02/14 10:09:02;;;;;;;7.40;3.50;;;;;;;12.38;52.44;101823.61;143995;1276;101123;-86
2023/02/14 10:12:30;;;;;;;6.90;4.10;;;;;;;12.43;52.34;101824.85;143717;1273;102165;-90
2023/02/14 10:16:00;;;;;;;6.60;4.30;;;;;;;12.46;52.94;101825.34;144733;1272;102421;-86
2023/02/14 10:19:51;;;;;;;3.50;3.20;;;;;;;12.54;53.12;101820.91;144047;1276;100968;-91
2023/02/14 10:23:36;;;;;;;6.10;3.40;;;;;;;12.56;52.93;101818.56;145051;1273;102182;-92
2023/02/14 10:27:26;;;;;;;5.50;3.70;;;;;;;12.58;52.84;101817.23;144845;1273;101950;-89
2023/02/14 10:31:21;;;;;;;4.30;3.80;;;;;;;12.60;52.78;101812.61;143756;1276;102225;-77
2023/02/14 10:34:48;;;;;;;5.50;4.20;;;;;;;12.63;52.62;101815.17;142207;1286;102246;-85
2023/02/14 10:38:23;;;;;;;6.00;3.90;;;;;;;12.64;52.57;101822.70;142141;1281;101487;-83
2023/02/14 10:42:07;;;;;;;4.60;4.10;;;;;;;12.64;52.23;101822.89;141836;1281;102335;-86
2023/02/14 10:45:41;;;;;;;4.60;3.20;;;;;;;12.65;52.21;101821.34;142065;1282;102278;-85
2023/02/14 10:49:33;;;;;;;6.50;3.30;;;;;;;12.72;52.19;101822.28;142134;1285;102546;-83
2023/02/14 10:53:12;;;;;;;4.50;3.40;;;;;;;12.82;51.90;101820.21;142201;1282;103444;-80
2023/02/14 10:56:36;;;;;;;;;;;;;;;12.88;51.88;101813.66;142050;1285;102136;-85
2023/02/14 11:00:05;;;;;;;6.30;3.40;;;;;;;12.96;51.65;101814.29;142084;1288;102098;-81
2023/02/14 11:03:27;;;;;;;4.00;3.60;;;;;;;13.01;51.40;101813.60;142116;1284;103118;-86
2023/02/14 11:06:50;;;;;;;4.10;3.70;;;;;;;13.04;51.30;101819.48;141995;1285;98114;-84
2023/02/14 11:10:13;;;;;;;5.50;3.30;;;;;;;13.06;51.44;101813.08;142198;1283;99290;-86
2023/02/14 11:13:37;;;;;;;4.80;3.90;;;;;;;13.12;51.29;101811.56;142842;1276;107554;-83
2023/02/14 11:16:59;;;;;;;5.10;3.50;;;;;;;13.16;51.05;101813.27;143452;1273;108605;-79
2023/02/14 11:20:29;;;;;;;4.00;3.70;;;;;;;13.16;51.07;101808.20;143580;1276;99239;-80
2023/02/14 11:23:51;;;;;;;4.00;3.30;;;;;;;13.18;50.91;101809.52;143373;1273;108358;-84
2023/02/14 11:27:13;;;;;;;4.20;3.50;;;;;;;13.21;50.84;101804.56;143354;1279;98885;-81
2023/02/14 11:30:39;;;;;;;4.00;3.40;;;;;;;13.28;50.75;101803.26;143165;1276;98700;-78
2023/02/14 11:34:04;;;;;;;3.50;3.10;;;;;;;13.38;50.53;101805.53;143321;1274;98731;-84
2023/02/14 11:37:36;;;;;;;3.70;3.00;;;;;;;13.51;50.46;101799.33;143256;1273;98020;-85
2023/02/14 11:40:58;;;;;;;4.70;3.10;;;;;;;13.59;50.32;101797.36;143533;1276;97946;-78
2023/02/14 11:44:24;;;;;;;5.00;3.30;;;;;;;13.64;50.13;101791.05;143225;1276;98881;-86
2023/02/14 11:47:46;;;;;;;4.30;3.40;;;;;;;13.78;50.09;101790.83;143153;1275;98334;-83
2023/02/14 11:51:13;;;;;;;4.30;2.90;;;;;;;13.90;49.94;101793.30;143449;1276;97989;-77
2023/02/14 11:54:38;;;;;;;3.10;2.90;;;;;;;13.95;49.68;101793.99;143269;1274;97978;-86
2023/02/14 11:58:02;;;;;;;4.90;3.10;;;;;;;13.94;49.67;101789.27;143103;1277;98126;-80
2023/02/14 12:01:27;;;;;;;6.50;3.60;;;;;;;13.96;49.61;101788.43;144204;1276;98109;-84
2023/02/14 12:04:52;;;;;;;3.90;2.90;;;;;;;13.95;49.51;101785.77;143489;1273;98046;-86
2023/02/14 12:08:14;;;;;;;3.40;2.70;;;;;;;14.02;49.56;101776.05;143639;1276;97956;-86
2023/02/14 12:11:36;;;;;;;3.80;3.40;;;;;;;14.17;49.39;101774.60;143638;1273;98003;-78
2023/02/14 12:15:23;;;;;;;4.10;3.20;;;;;;;14.21;49.22;101778.04;143721;1273;97987;-85
2023/02/14 12:19:10;;;;;;;3.90;3.00;;;;;;;14.21;49.22;101779.26;143522;1275;97963;-79
2023/02/14 12:22:40;;;;;;;3.50;2.60;;;;;;;14.20;49.18;101777.82;143563;1274;97950;-77
2023/02/14 12:26:08;;;;;;;2.90;2.50;;;;;;;14.18;49.14;101776.73;143493;1277;98023;-80
2023/02/14 12:29:38;;;;;;;2.90;2.60;;;;;;;14.16;49.16;101777.71;144533;1275;97975;-82
2023/02/14 12:33:00;;;;;;;4.00;3.00;;;;;;;14.16;49.08;101778.41;143736;1288;98030;-79
2023/02/14 12:36:48;;;;;;;3.70;3.20;;;;;;;14.13;49.08;101773.05;143665;1274;97937;-87
2023/02/14 12:40:27;;;;;;;3.50;2.90;;;;;;;14.09;49.09;101777.65;143516;1276;98275;-84
2023/02/14 12:43:55;;;;;;;5.00;3.90;;;;;;;14.05;49.30;101769.34;143089;1274;98734;-81
2023/02/14 12:47:30;;;;;;;4.00;3.30;;;;;;;14.06;49.37;101766.40;143692;1275;97969;-80
2023/02/14 12:51:03;;;;;;;4.50;4.00;;;;;;;14.06;49.32;101766.70;143631;1276;99238;-81
2023/02/14 12:54:37;;;;;;;4.40;4.00;;;;;;;14.00;49.31;101764.63;143659;1275;99242;-82
2023/02/14 12:58:08;;;;;;;5.60;4.80;;;;;;;13.85;49.24;101763.09;143515;1276;97956;-80
2023/02/14 13:01:39;;;;;;;4.60;4.20;;;;;;;13.72;49.52;101759.68;143926;1274;98036;-80
2023/02/14 13:05:22;;;;;;;5.90;4.80;;;;;;;13.60;49.59;101761.56;143821;1276;99340;-80
2023/02/14 13:09:13;;;;;;;5.80;5.20;;;;;;;13.50;49.86;101758.96;143767;1276;98021;-81
2023/02/14 13:12:41;;;;;;;5.20;4.70;;;;;;;13.37;50.20;101756.42;143758;1274;97965;-80
2023/02/14 13:16:06;;;;;;;5.10;4.60;;;;;;;13.32;50.48;101758.51;144056;1274;97944;-83
2023/02/14 13:19:35;;;;;;;9.70;5.20;;;;;;;13.31;50.57;101758.66;143895;1276;98302;-82
2023/02/14 13:23:05;;;;;;;12.80;5.80;;;;;;;13.32;50.85;101760.08;144063;1274;99206;-80
2023/02/14 13:26:37;;;;;;;5.10;4.40;;;;;;;13.32;50.91;101761.46;143212;1279;97966;-82
2023/02/14 13:30:20;;;;;;;5.40;4.90;;;;;;;13.31;50.98;101761.62;143659;1274;98033;-85
2023/02/14 13:33:51;;;;;;;6.50;4.70;;;;;;;13.31;51.05;101765.29;144038;1272;97978;-82
2023/02/14 13:37:18;;;;;;;5.80;5.20;;;;;;;13.29;51.03;101766.45;144089;1273;99315;-84
2023/02/14 13:40:41;;;;;;;7.40;5.70;;;;;;;13.29;51.13;101771.52;143630;1274;97955;-86
2023/02/14 13:44:12;;;;;;;7.00;5.00;;;;;;;13.23;51.15;101768.65;144964;1274;97858;-87
2023/02/14 13:47:45;;;;;;;7.70;5.50;;;;;;;13.27;51.30;101765.52;146617;1272;97857;-85
2023/02/14 13:51:12;;;;;;;7.30;5.10;;;;;;;13.43;51.20;101768.69;146226;1272;97996;-78
2023/02/14 13:54:49;;;;;;;6.70;5.30;;;;;;;13.59;50.98;101766.41;145259;1273;97956;-78
2023/02/14 13:58:23;;;;;;;7.40;4.60;;;;;;;13.81;50.74;101765.04;146457;1273;97949;-82
2023/02/14 14:01:47;;;;;;;10.20;5.00;;;;;;;13.87;50.43;101766.64;146757;1272;97928;-90
2023/02/14 14:05:48;;;;;;;6.40;4.50;;;;;;;13.88;50.22;101767.38;143984;1276;97882;-85
2023/02/14 14:09:11;;;;;;;6.60;4.90;;;;;;;13.87;50.01;101757.89;142414;1285;98126;-85
2023/02/14 14:12:33;;;;;;;7.60;5.60;;;;;;;13.84;50.12;101755.02;142555;1285;98135;-81
2023/02/14 14:16:26;;;;;;;8.60;5.80;;;;;;;13.69;49.75;101753.82;142792;1282;98204;-88
2023/02/14 14:19:49;;;;;;;6.40;5.80;;;;;;;13.43;49.72;101755.92;142806;1284;98842;-85
2023/02/14 14:23:43;;;;;;;10.30;6.20;;;;;;;13.22;49.82;101747.85;143955;1279;98581;-90
2023/02/14 14:27:23;;;;;;;10.50;6.40;;;;;;;13.03;49.89;101750.15;142981;1295;98069;-81
2023/02/14 14:30:45;;;;;;;9.40;6.30;;;;;;;12.89;49.78;101755.07;140721;1296;99220;-85
2023/02/14 14:34:16;;;;;;;7.00;5.90;;;;;;;12.77;49.93;101755.85;140452;1294;98133;-86
2023/02/14 14:37:49;;;;;;;10.20;6.90;;;;;;;12.67;49.79;101759.16;140785;1296;98172;-84
2023/02/14 14:41:11;;;;;;;9.40;6.30;;;;;;;12.58;49.95;101763.52;141217;1296;98917;-93
2023/02/14 14:44:34;;;;;;;8.10;6.20;;;;;;;12.48;50.02;101757.92;141752;1296;98113;-91
2023/02/14 14:48:03;;;;;;;7.40;6.20;;;;;;;12.40;50.05;101760.90;143074;1282;98140;-89
2023/02/14 14:51:27;;;;;;;8.30;6.30;;;;;;;12.32;50.10;101760.07;142787;1283;98126;-88
2023/02/14 14:54:49;;;;;;;10.40;6.90;;;;;;;12.21;50.18;101759.13;142879;1282;98152;-91
2023/02/14 14:58:30;;;;;;;7.50;6.80;;;;;;;12.12;50.26;101759.48;142374;1282;98142;-86
2023/02/14 15:01:53;;;;;;;10.50;7.30;;;;;;;12.06;50.22;101760.47;142493;1279;98266;-82
2023/02/14 15:05:33;;;;;;;8.50;7.00;;;;;;;12.00;50.19;101757.59;143641;1282;97997;-85
2023/02/14 15:08:55;;;;;;;13.90;7.20;;;;;;;11.93;50.53;101754.04;143736;1276;97983;-81
2023/02/14 15:16:02;;;;;;;8.40;6.60;;;;;;;11.82;50.67;101756.53;143999;1275;97953;-80
2023/02/14 15:19:33;;;;;;;12.10;5.90;;;;;;;11.78;50.65;101759.30;143658;1274;97994;-85
2023/02/14 15:22:56;;;;;;;12.60;7.40;;;;;;;11.72;50.70;101762.72;143888;1276;97953;-81
2023/02/14 15:26:26;;;;;;;10.50;7.80;;;;;;;11.66;50.70;101762.14;143672;1276;98028;-85
2023/02/14 15:30:00;;;;;;;10.70;7.60;;;;;;;11.61;50.87;101756.34;143460;1277;97954;-85
2023/02/14 15:33:22;;;;;;;9.50;7.00;;;;;;;11.54;50.92;101758.48;143810;1277;97943;-83
2023/02/14 15:36:52;;;;;;;9.90;6.60;;;;;;;11.53;51.09;101761.77;143906;1274;97925;-84
2023/02/14 15:40:22;;;;;;;10.30;7.30;;;;;;;11.64;51.19;101763.08;143064;1274;98854;-86
2023/02/14 15:43:49;;;;;;;15.90;8.00;;;;;;;11.73;51.04;101759.27;144012;1276;97960;-79
2023/02/14 15:47:16;;;;;;;9.90;6.50;;;;;;;11.79;50.97;101765.44;144245;1276;97954;-90
2023/02/14 15:50:49;;;;;;;8.20;6.40;;;;;;;11.84;51.13;101766.36;143815;1276;98005;-77
2023/02/14 15:54:22;;;;;;;11.40;7.00;;;;;;;11.87;50.94;101769.09;145037;1275;99224;-93
2023/02/14 15:57:53;;;;;;;10.30;6.70;;;;;;;11.88;50.99;101768.61;145284;1276;97934;-84
2023/02/14 16:01:20;;;;;;;10.30;7.00;;;;;;;11.88;51.07;101774.23;144174;1276;97978;-83
2023/02/14 16:04:42;;;;;;;9.10;6.70;;;;;;;11.89;51.01;101777.38;143417;1276;98012;-85
2023/02/14 16:08:27;;;;;;;10.60;7.60;;;;;;;11.89;50.91;101777.52;143595;1276;99137;-81